Аэропорт: Елизово. Петропавловск-Камчатский

ICAO: UHPP

METAR:
2021-07-28 12:00:00
UHPP 281200Z 00000MPS CAVOK 20/17 Q1004 R34L/CLRD70 NOSIG RMK QFE749/0999
METAR:
2021-07-28 10:35:00
TAF UHPP 281035Z 2812/2918 36003G12MPS 9999 SCT040CB OVC100 TEMPO 2900/2910 18005G12MPS TEMPO 2910/2915 1000 SHRA BR VV004